Time;durP1;ratioP1;P1;durP2;ratioP2;P2;SDS_P1;SDS_P2;PMS_P1;PMS_P2;Temp;Humidity;BMP_temperature;BMP_pressure;BME280_temperature;BME280_humidity;BME280_pressure;Samples;Min_cycle;Max_cycle;Signal;HPM_P1;HPM_P2
2023/01/07 00:01:26;;;;;;;45.40;39.10;;;9.90;99.90;;;;;;4985237;28;20052;-78
2023/01/07 00:03:53;;;;;;;47.25;39.63;;;10.00;99.90;;;;;;4969157;28;20054;-77
2023/01/07 00:06:32;;;;;;;52.67;40.85;;;10.00;99.90;;;;;;4949802;28;20042;-76
2023/01/07 00:08:58;;;;;;;48.35;41.00;;;10.00;99.90;;;;;;4982195;28;20046;-77
2023/01/07 00:11:26;;;;;;;47.72;40.33;;;10.10;99.90;;;;;;4982357;28;20424;-77
2023/01/07 00:13:54;;;;;;;53.17;39.83;;;10.10;99.90;;;;;;4983752;28;20046;-77
2023/01/07 00:16:22;;;;;;;51.55;41.30;;;10.20;99.90;;;;;;4982856;28;21547;-76
2023/01/07 00:18:50;;;;;;;56.97;42.53;;;10.20;99.90;;;;;;4983297;28;20047;-76
2023/01/07 00:21:18;;;;;;;52.17;41.50;;;10.20;99.90;;;;;;4966916;28;20519;-76
2023/01/07 00:23:45;;;;;;;47.17;38.47;;;10.20;99.90;;;;;;4967216;28;20082;-76
2023/01/07 00:26:20;;;;;;;50.55;39.92;;;10.20;99.90;;;;;;4967425;28;20050;-76
2023/01/07 00:28:48;;;;;;;52.58;39.47;;;10.20;99.90;;;;;;4983002;28;20034;-76
2023/01/07 00:31:20;;;;;;;47.80;40.22;;;10.20;99.90;;;;;;4967251;28;20089;-76
2023/01/07 00:36:23;;;;;;;47.75;39.88;;;10.30;99.90;;;;;;4982832;28;20657;-76
2023/01/07 00:38:56;;;;;;;47.97;38.47;;;10.30;99.90;;;;;;4984472;28;20133;-76
2023/01/07 00:41:22;;;;;;;47.28;38.95;;;10.30;99.90;;;;;;4969772;28;20054;-76
2023/01/07 00:43:48;;;;;;;54.90;40.58;;;10.40;99.90;;;;;;4971330;28;20058;-76
2023/01/07 00:46:14;;;;;;;51.72;40.47;;;10.30;99.90;;;;;;4954459;28;20043;-76
2023/01/07 00:48:41;;;;;;;46.97;38.75;;;10.40;99.90;;;;;;4967804;28;20113;-76
2023/01/07 00:51:12;;;;;;;47.90;38.83;;;10.40;99.90;;;;;;4985846;28;20073;-76
2023/01/07 00:53:38;;;;;;;50.75;39.67;;;10.40;99.90;;;;;;4985953;28;20050;-76
2023/01/07 00:56:04;;;;;;;46.63;39.08;;;10.40;99.90;;;;;;4985212;28;20050;-76
2023/01/07 00:58:32;;;;;;;45.25;37.13;;;10.40;99.90;;;;;;4967741;28;20050;-72
2023/01/07 01:00:59;;;;;;;48.10;38.15;;;10.40;99.90;;;;;;4986726;28;20054;-73
2023/01/07 01:03:27;;;;;;;57.20;40.88;;;10.50;99.90;;;;;;4967665;28;20038;-73
2023/01/07 01:05:53;;;;;;;50.75;40.70;;;10.50;99.90;;;;;;4970557;28;20615;-72
2023/01/07 01:08:20;;;;;;;48.38;38.97;;;10.50;99.90;;;;;;4984229;28;20038;-73
2023/01/07 01:10:46;;;;;;;46.20;37.17;;;10.50;99.90;;;;;;4985691;28;20507;-72
2023/01/07 01:13:14;;;;;;;49.63;39.38;;;10.50;99.90;;;;;;4983048;28;20046;-74
2023/01/07 01:15:45;;;;;;;49.22;39.25;;;10.50;99.90;;;;;;4970857;28;20464;-77
2023/01/07 01:18:10;;;;;;;;;;;10.50;99.90;;;;;;4985827;28;20123;-76
2023/01/07 01:20:37;;;;;;;55.92;40.72;;;10.50;99.90;;;;;;4970947;28;20373;-77
2023/01/07 01:23:04;;;;;;;54.88;40.35;;;10.50;99.90;;;;;;4987030;28;20104;-77
2023/01/07 01:25:33;;;;;;;50.78;38.65;;;10.50;99.90;;;;;;4971215;28;20496;-77
2023/01/07 01:27:59;;;;;;;53.63;39.17;;;10.50;99.90;;;;;;4982871;28;20044;-76
2023/01/07 01:30:25;;;;;;;49.90;39.88;;;10.60;99.90;;;;;;4965436;28;20048;-77
2023/01/07 01:32:51;;;;;;;53.25;41.90;;;10.60;99.90;;;;;;4984653;28;20145;-77
2023/01/07 01:35:16;;;;;;;53.80;40.90;;;10.60;99.90;;;;;;4986112;28;20038;-77
2023/01/07 01:37:42;;;;;;;51.00;39.85;;;10.60;99.90;;;;;;4967389;28;20038;-77
2023/01/07 01:40:14;;;;;;;58.17;43.53;;;10.60;99.90;;;;;;4969418;28;20046;-77
2023/01/07 01:42:43;;;;;;;54.47;42.67;;;10.60;99.90;;;;;;4983826;28;20049;-77
2023/01/07 01:45:10;;;;;;;52.50;41.13;;;10.60;99.90;;;;;;4952547;28;20054;-77
2023/01/07 01:47:55;;;;;;;53.58;41.92;;;10.60;99.90;;;;;;4967904;28;20050;-76
2023/01/07 01:50:40;;;;;;;51.60;41.75;;;10.60;99.90;;;;;;4978436;28;20097;-76
2023/01/07 01:53:29;;;;;;;45.35;39.22;;;10.70;99.90;;;;;;4968611;28;20386;-76
2023/01/07 01:56:09;;;;;;;47.22;41.05;;;10.70;99.90;;;;;;4986294;28;20057;-76
2023/01/07 01:58:49;;;;;;;45.72;40.47;;;10.70;99.90;;;;;;4968044;28;20046;-77
2023/01/07 02:01:14;;;;;;;47.30;41.60;;;10.70;99.90;;;;;;4985062;28;20552;-77
2023/01/07 02:03:44;;;;;;;46.55;41.13;;;10.70;99.90;;;;;;4967931;28;20054;-77
2023/01/07 02:06:25;;;;;;;41.55;37.10;;;10.70;99.90;;;;;;4969186;28;20065;-76
2023/01/07 02:08:51;;;;;;;43.50;39.00;;;10.70;99.90;;;;;;4984756;28;20073;-77
2023/01/07 02:11:43;;;;;;;43.55;39.05;;;10.80;99.90;;;;;;4968550;28;20112;-79
2023/01/07 02:14:19;;;;;;;41.92;37.65;;;10.80;99.90;;;;;;4966848;28;20054;-77
2023/01/07 02:16:58;;;;;;;41.38;37.17;;;10.70;99.90;;;;;;4982570;28;20061;-77
2023/01/07 02:19:55;;;;;;;44.47;39.75;;;10.80;99.90;;;;;;4985168;28;20046;-77
2023/01/07 02:22:47;;;;;;;45.35;40.55;;;10.80;99.90;;;;;;4964052;28;20050;-76
2023/01/07 02:25:36;;;;;;;41.75;37.50;;;10.70;99.90;;;;;;4968521;28;20050;-76
2023/01/07 02:28:04;;;;;;;42.03;38.03;;;10.80;99.90;;;;;;4984352;28;20129;-77
2023/01/07 02:31:02;;;;;;;43.00;38.80;;;10.80;99.90;;;;;;4965695;28;20049;-77
2023/01/07 02:33:31;;;;;;;40.28;36.42;;;10.80;99.90;;;;;;4981363;28;20725;-77
2023/01/07 02:36:15;;;;;;;41.60;37.55;;;10.70;99.90;;;;;;4983521;28;20177;-76
2023/01/07 02:39:10;;;;;;;40.70;36.80;;;10.80;99.90;;;;;;4968698;28;20046;-77
2023/01/07 02:41:54;;;;;;;39.35;35.72;;;10.80;99.90;;;;;;4969600;28;20436;-78
2023/01/07 02:44:46;;;;;;;42.70;38.50;;;10.80;99.90;;;;;;4985717;28;20069;-78
2023/01/07 02:47:37;;;;;;;41.08;37.08;;;10.80;99.90;;;;;;4981926;28;20100;-77
2023/01/07 02:50:09;;;;;;;42.22;38.30;;;10.80;99.90;;;;;;4984129;28;20061;-77
2023/01/07 02:52:36;;;;;;;43.13;38.75;;;10.80;99.90;;;;;;4968002;28;20042;-73
2023/01/07 02:55:21;;;;;;;41.35;37.63;;;10.80;99.90;;;;;;4967272;28;20043;-72
2023/01/07 02:58:25;;;;;;;38.90;35.33;;;10.80;99.90;;;;;;4961473;28;20081;-74
2023/01/07 03:01:28;;;;;;;41.08;37.28;;;10.80;99.90;;;;;;4976491;28;20418;-72
2023/01/07 03:04:06;;;;;;;38.10;34.70;;;10.80;99.90;;;;;;4973751;28;20082;-72
2023/01/07 03:06:41;;;;;;;39.42;35.80;;;10.80;99.90;;;;;;4983112;28;20050;-73
2023/01/07 03:09:16;;;;;;;41.63;37.83;;;10.80;99.90;;;;;;4983579;28;20042;-72
2023/01/07 03:11:53;;;;;;;39.65;36.05;;;10.70;99.90;;;;;;4996163;28;20058;-72
2023/01/07 03:14:50;;;;;;;41.30;37.20;;;10.70;99.90;;;;;;4967185;28;20109;-73
2023/01/07 03:17:30;;;;;;;37.95;34.42;;;10.70;99.90;;;;;;4959696;28;20049;-72
2023/01/07 03:19:59;;;;;;;37.65;34.10;;;10.70;99.90;;;;;;4980085;28;20050;-77
2023/01/07 03:22:28;;;;;;;38.28;34.63;;;10.70;99.90;;;;;;4983813;28;20059;-77
2023/01/07 03:24:55;;;;;;;38.33;34.75;;;10.70;99.90;;;;;;4987671;28;20053;-78
2023/01/07 03:27:23;;;;;;;39.10;35.45;;;10.70;99.90;;;;;;4985654;28;20038;-77
2023/01/07 03:29:51;;;;;;;35.58;32.25;;;10.70;99.90;;;;;;4967834;28;20050;-77
2023/01/07 03:32:33;;;;;;;37.35;33.72;;;10.70;99.90;;;;;;4968690;28;20581;-77
2023/01/07 03:34:59;;;;;;;36.63;33.33;;;10.70;99.90;;;;;;4962123;28;20054;-77
2023/01/07 03:37:26;;;;;;;37.35;33.75;;;10.70;99.90;;;;;;4934715;28;20567;-77
2023/01/07 03:39:53;;;;;;;36.80;33.35;;;10.70;99.90;;;;;;4979766;28;20530;-77
2023/01/07 03:42:38;;;;;;;36.47;33.03;;;10.70;99.90;;;;;;4985729;28;20041;-78
2023/01/07 03:45:13;;;;;;;35.47;32.28;;;10.70;99.90;;;;;;4995065;28;20165;-78
2023/01/07 03:47:44;;;;;;;35.25;31.95;;;10.70;99.90;;;;;;4998674;28;20126;-78
2023/01/07 03:50:10;;;;;;;36.95;33.45;;;10.60;99.90;;;;;;4985147;28;20121;-79
2023/01/07 03:52:39;;;;;;;35.88;32.35;;;10.60;99.90;;;;;;4984431;28;20405;-73
2023/01/07 03:55:05;;;;;;;34.30;31.00;;;10.60;99.90;;;;;;4981380;28;20120;-78
2023/01/07 03:57:32;;;;;;;35.05;31.85;;;10.60;99.90;;;;;;4984964;28;20567;-78
2023/01/07 03:59:58;;;;;;;34.95;31.65;;;10.60;99.90;;;;;;4982122;28;20105;-78
2023/01/07 04:02:24;;;;;;;34.92;31.73;;;10.60;99.90;;;;;;4967959;28;20054;-78
2023/01/07 04:04:50;;;;;;;33.60;30.40;;;10.50;99.90;;;;;;4964532;28;20055;-79
2023/01/07 04:07:16;;;;;;;34.85;31.58;;;10.60;99.90;;;;;;4968374;28;20081;-78
2023/01/07 04:09:42;;;;;;;33.08;29.95;;;10.50;99.90;;;;;;4969824;28;20102;-78
2023/01/07 04:12:08;;;;;;;34.03;30.80;;;10.50;99.90;;;;;;4951347;28;20235;-79
2023/01/07 04:14:34;;;;;;;32.72;29.38;;;10.50;99.90;;;;;;4938371;28;20113;-78
2023/01/07 04:17:00;;;;;;;33.05;29.65;;;10.50;99.90;;;;;;4973361;28;20433;-78
2023/01/07 04:19:26;;;;;;;30.08;27.17;;;10.50;99.90;;;;;;4972262;28;20074;-78
2023/01/07 04:21:52;;;;;;;30.73;27.77;;;10.50;99.90;;;;;;4972536;28;20054;-79
2023/01/07 04:24:17;;;;;;;29.58;26.67;;;10.50;99.90;;;;;;4987682;28;20077;-79
2023/01/07 04:26:43;;;;;;;30.30;27.45;;;10.50;99.90;;;;;;4983968;28;20045;-79
2023/01/07 04:29:10;;;;;;;28.65;25.95;;;10.50;99.90;;;;;;4986742;28;20031;-79
2023/01/07 04:31:36;;;;;;;30.50;27.60;;;10.50;99.90;;;;;;4972437;28;20042;-79
2023/01/07 04:34:01;;;;;;;28.80;26.00;;;10.50;99.90;;;;;;4987956;28;20130;-73
2023/01/07 04:36:28;;;;;;;29.20;26.58;;;10.50;99.90;;;;;;4988917;28;20046;-73
2023/01/07 04:38:54;;;;;;;29.90;27.10;;;10.50;99.90;;;;;;4980175;28;20095;-73
2023/01/07 04:41:20;;;;;;;28.88;26.00;;;10.50;99.90;;;;;;4973463;28;20046;-73
2023/01/07 04:43:45;;;;;;;28.08;25.40;;;10.50;99.90;;;;;;4988580;28;20078;-72
2023/01/07 04:46:11;;;;;;;26.27;24.00;;;10.50;99.90;;;;;;4988365;28;20657;-78
2023/01/07 04:48:37;;;;;;;27.38;24.55;;;10.50;99.90;;;;;;4987372;28;20046;-78
2023/01/07 04:51:03;;;;;;;27.63;24.95;;;10.50;99.90;;;;;;4983324;28;20046;-77
2023/01/07 04:53:29;;;;;;;27.90;25.08;;;10.50;99.90;;;;;;4988950;28;20049;-78
2023/01/07 04:55:55;;;;;;;27.73;25.08;;;10.50;99.90;;;;;;4971804;28;20073;-79
2023/01/07 04:58:20;;;;;;;27.42;24.85;;;10.50;99.90;;;;;;4956155;28;20654;-77
2023/01/07 05:00:55;;;;;;;26.75;24.25;;;10.50;99.90;;;;;;4985275;28;20120;-80
2023/01/07 05:03:21;;;;;;;27.08;24.45;;;10.60;99.90;;;;;;4967493;28;20528;-78
2023/01/07 05:05:47;;;;;;;25.77;23.25;;;10.50;99.90;;;;;;4975665;28;20165;-78
2023/01/07 05:08:12;;;;;;;25.50;23.20;;;10.50;99.90;;;;;;4973626;28;20534;-78
2023/01/07 05:10:38;;;;;;;25.58;22.92;;;10.50;99.90;;;;;;4960042;28;20054;-78
2023/01/07 05:13:06;;;;;;;25.33;22.95;;;10.50;99.90;;;;;;4956714;28;20077;-78
2023/01/07 05:15:33;;;;;;;24.15;21.83;;;10.50;99.90;;;;;;4970269;28;20045;-78
2023/01/07 05:18:02;;;;;;;24.33;21.93;;;10.50;99.90;;;;;;4988146;28;20061;-78
2023/01/07 05:20:27;;;;;;;22.30;20.30;;;10.50;99.90;;;;;;4958137;28;20054;-78
2023/01/07 05:22:53;;;;;;;22.83;20.63;;;10.50;99.90;;;;;;4991785;28;20049;-78
2023/01/07 05:25:19;;;;;;;23.95;21.63;;;10.50;99.90;;;;;;4972220;28;20042;-78
2023/01/07 05:27:45;;;;;;;22.15;19.98;;;10.50;99.90;;;;;;4974046;28;20053;-79
2023/01/07 05:30:10;;;;;;;20.88;18.83;;;10.50;99.90;;;;;;4973830;28;20413;-78
2023/01/07 05:32:36;;;;;;;21.38;19.30;;;10.50;99.90;;;;;;4990910;28;20400;-77
2023/01/07 05:35:08;;;;;;;21.77;19.63;;;10.50;99.90;;;;;;4973695;28;20056;-78
2023/01/07 05:37:37;;;;;;;20.40;18.42;;;10.50;99.90;;;;;;4953226;28;20141;-77
2023/01/07 05:40:03;;;;;;;19.95;17.85;;;10.50;99.90;;;;;;4973659;28;20045;-77
2023/01/07 05:42:30;;;;;;;19.80;17.95;;;10.50;99.90;;;;;;4990385;28;20065;-78
2023/01/07 05:44:56;;;;;;;19.00;17.20;;;10.50;99.90;;;;;;4957103;28;20041;-78
2023/01/07 05:47:22;;;;;;;19.88;17.98;;;10.50;99.90;;;;;;4990565;28;20092;-78
2023/01/07 05:49:48;;;;;;;19.30;17.55;;;10.50;99.90;;;;;;4989544;28;20050;-78
2023/01/07 05:52:14;;;;;;;17.98;16.15;;;10.50;99.90;;;;;;4974158;28;20661;-76
2023/01/07 05:54:40;;;;;;;18.35;16.60;;;10.50;99.90;;;;;;4973712;28;20045;-76
2023/01/07 05:57:05;;;;;;;19.27;17.30;;;10.50;99.90;;;;;;4941771;28;20432;-78
2023/01/07 05:59:33;;;;;;;19.00;17.10;;;10.50;99.90;;;;;;4958464;28;20050;-77
2023/01/07 06:02:00;;;;;;;18.88;17.08;;;10.50;99.90;;;;;;4974528;28;20046;-78
2023/01/07 06:04:26;;;;;;;17.20;15.40;;;10.50;99.90;;;;;;4988784;28;20042;-77
2023/01/07 06:06:52;;;;;;;18.30;16.48;;;10.50;99.90;;;;;;4990074;28;20057;-78
2023/01/07 06:09:18;;;;;;;17.50;15.82;;;10.50;99.90;;;;;;4989440;28;20832;-78
2023/01/07 06:11:44;;;;;;;18.38;16.48;;;10.50;99.90;;;;;;4990838;28;20137;-73
2023/01/07 06:14:10;;;;;;;17.75;16.13;;;10.50;99.90;;;;;;4957456;28;20140;-73
2023/01/07 06:16:36;;;;;;;18.23;16.35;;;10.50;99.90;;;;;;4975832;28;20053;-72
2023/01/07 06:19:02;;;;;;;17.50;15.73;;;10.50;99.90;;;;;;4947885;28;20496;-73
2023/01/07 06:21:28;;;;;;;17.55;15.77;;;10.50;99.90;;;;;;4957513;28;20128;-73
2023/01/07 06:23:55;;;;;;;17.33;15.43;;;10.50;99.90;;;;;;4989076;28;20053;-72
2023/01/07 06:26:21;;;;;;;22.30;16.30;;;10.50;99.90;;;;;;4989401;28;20042;-72
2023/01/07 06:28:47;;;;;;;17.15;15.35;;;10.50;99.90;;;;;;4977023;28;20081;-72
2023/01/07 06:31:13;;;;;;;16.40;14.80;;;10.50;99.90;;;;;;4957253;28;20081;-72
2023/01/07 06:33:39;;;;;;;15.23;13.68;;;10.50;99.90;;;;;;4988775;28;20049;-72
2023/01/07 06:36:06;;;;;;;15.57;13.95;;;10.50;99.90;;;;;;4989802;28;20057;-73
2023/01/07 06:38:32;;;;;;;15.25;13.73;;;10.50;99.90;;;;;;4966682;28;20054;-72
2023/01/07 06:40:58;;;;;;;15.35;13.85;;;10.50;99.90;;;;;;4956978;28;20111;-72
2023/01/07 06:43:25;;;;;;;16.25;14.45;;;10.50;99.90;;;;;;4954710;28;20053;-72
2023/01/07 06:45:50;;;;;;;15.65;14.23;;;10.50;99.90;;;;;;4989493;28;20045;-72
2023/01/07 06:48:16;;;;;;;14.65;13.15;;;10.50;99.90;;;;;;4965084;28;20035;-72
2023/01/07 06:50:43;;;;;;;15.50;13.88;;;10.50;99.90;;;;;;4956621;28;20042;-72
2023/01/07 06:53:09;;;;;;;15.10;13.70;;;10.50;99.90;;;;;;4973144;28;20046;-72
2023/01/07 06:55:35;;;;;;;15.45;13.95;;;10.50;99.90;;;;;;4956589;28;20046;-72
2023/01/07 06:58:01;;;;;;;13.77;12.45;;;10.50;99.90;;;;;;4972858;28;20092;-72
2023/01/07 07:00:27;;;;;;;14.95;13.45;;;10.50;99.90;;;;;;4957028;28;20046;-72
2023/01/07 07:02:53;;;;;;;13.70;12.38;;;10.50;99.90;;;;;;4986940;28;20420;-72
2023/01/07 07:05:18;;;;;;;14.77;13.02;;;10.50;99.90;;;;;;4973751;28;20440;-72
2023/01/07 07:07:44;;;;;;;14.48;12.85;;;10.50;99.90;;;;;;4955396;28;20433;-72
2023/01/07 07:10:10;;;;;;;14.15;12.27;;;10.50;99.90;;;;;;4970802;28;20720;-72
2023/01/07 07:12:37;;;;;;;14.13;11.93;;;10.50;99.90;;;;;;4969272;28;20097;-72
2023/01/07 07:15:04;;;;;;;13.13;11.93;;;10.50;99.90;;;;;;4985413;28;20448;-72
2023/01/07 07:17:31;;;;;;;12.43;11.05;;;10.50;99.90;;;;;;4973998;28;20048;-72
2023/01/07 07:19:57;;;;;;;13.57;12.25;;;10.50;99.90;;;;;;4973799;28;20111;-72
2023/01/07 07:22:23;;;;;;;12.80;11.40;;;10.50;99.90;;;;;;4955551;28;20064;-72
2023/01/07 07:24:48;;;;;;;12.18;10.98;;;10.50;99.90;;;;;;4953280;28;20541;-72
2023/01/07 07:27:14;;;;;;;12.60;11.38;;;10.50;99.90;;;;;;4952857;28;20424;-73
2023/01/07 07:29:40;;;;;;;12.88;11.52;;;10.40;99.90;;;;;;4977474;28;20136;-72
2023/01/07 07:32:06;;;;;;;12.13;10.98;;;10.50;99.90;;;;;;4959492;28;20124;-73
2023/01/07 07:34:31;;;;;;;11.68;10.48;;;10.50;99.90;;;;;;4940119;28;20443;-78
2023/01/07 07:36:57;;;;;;;10.73;9.63;;;10.40;99.90;;;;;;4988724;28;20053;-79
2023/01/07 07:39:23;;;;;;;11.50;10.38;;;10.40;99.90;;;;;;4988151;28;20508;-79
2023/01/07 07:41:49;;;;;;;12.15;10.90;;;10.40;99.90;;;;;;4955293;28;20507;-79
2023/01/07 07:44:14;;;;;;;11.35;10.25;;;10.40;99.90;;;;;;4989142;28;20041;-79
2023/01/07 07:46:40;;;;;;;10.88;9.82;;;10.40;99.90;;;;;;4971198;28;20061;-73
2023/01/07 07:49:06;;;;;;;11.50;9.55;;;10.40;99.90;;;;;;4973809;28;20105;-73
2023/01/07 07:51:32;;;;;;;10.85;9.75;;;10.30;99.90;;;;;;4954174;28;20041;-72
2023/01/07 07:53:57;;;;;;;11.85;9.63;;;10.30;99.90;;;;;;4975370;28;20080;-72
2023/01/07 07:56:23;;;;;;;10.38;9.38;;;10.30;99.90;;;;;;4969026;28;20091;-72
2023/01/07 07:58:49;;;;;;;11.35;8.65;;;10.20;99.90;;;;;;4988281;28;20037;-72
2023/01/07 08:01:15;;;;;;;10.05;9.05;;;10.30;99.90;;;;;;4969779;28;20383;-73
2023/01/07 08:03:41;;;;;;;10.00;8.30;;;10.20;99.90;;;;;;4970751;28;20046;-72
2023/01/07 08:06:07;;;;;;;10.52;9.30;;;10.20;99.90;;;;;;4972875;28;20053;-79
2023/01/07 08:08:32;;;;;;;8.95;8.05;;;10.20;99.90;;;;;;4986555;28;20046;-79
2023/01/07 08:10:58;;;;;;;9.52;8.60;;;10.20;99.90;;;;;;4986732;28;20053;-79
2023/01/07 08:13:24;;;;;;;11.65;8.60;;;10.20;99.90;;;;;;4970681;28;20532;-79
2023/01/07 08:15:50;;;;;;;8.88;7.78;;;10.20;99.90;;;;;;4956045;28;20567;-79
2023/01/07 08:18:17;;;;;;;9.13;8.10;;;10.20;99.90;;;;;;4970674;28;20125;-79
2023/01/07 08:20:43;;;;;;;11.10;8.63;;;10.20;99.90;;;;;;4968866;28;20049;-79
2023/01/07 08:23:09;;;;;;;8.82;7.57;;;10.20;99.90;;;;;;4987547;28;20042;-79
2023/01/07 08:25:36;;;;;;;9.25;7.97;;;10.20;99.90;;;;;;4988681;28;20575;-79
2023/01/07 08:28:02;;;;;;;9.05;7.75;;;10.20;99.90;;;;;;4974056;28;20045;-79
2023/01/07 08:30:29;;;;;;;10.07;7.68;;;10.20;99.90;;;;;;4972729;28;20377;-79
2023/01/07 08:32:55;;;;;;;10.43;8.02;;;10.20;99.90;;;;;;4985150;28;20258;-79
2023/01/07 08:35:20;;;;;;;8.93;7.82;;;10.20;99.90;;;;;;4990816;28;20127;-78
2023/01/07 08:37:46;;;;;;;8.20;6.80;;;10.20;99.90;;;;;;4967645;28;20038;-79
2023/01/07 08:40:12;;;;;;;7.93;7.13;;;10.20;99.90;;;;;;4958050;28;20323;-79
2023/01/07 08:42:39;;;;;;;9.00;7.80;;;10.20;99.90;;;;;;4987444;28;20072;-78
2023/01/07 08:45:07;;;;;;;8.18;6.60;;;10.20;99.90;;;;;;4954276;28;20038;-79
2023/01/07 08:47:34;;;;;;;8.10;6.68;;;10.20;99.90;;;;;;4988879;28;20037;-79
2023/01/07 08:50:00;;;;;;;8.27;6.85;;;10.20;99.90;;;;;;4968877;28;20037;-79
2023/01/07 08:52:25;;;;;;;7.60;6.78;;;10.10;99.90;;;;;;4968279;28;20068;-79
2023/01/07 08:54:51;;;;;;;8.48;6.85;;;10.10;99.90;;;;;;4966192;28;20108;-78
2023/01/07 08:57:18;;;;;;;9.85;6.63;;;10.10;99.90;;;;;;4968850;28;20050;-79
2023/01/07 08:59:44;;;;;;;7.93;6.18;;;10.10;99.90;;;;;;4969634;28;20049;-78
2023/01/07 09:02:13;;;;;;;8.02;6.25;;;10.10;99.90;;;;;;4986254;28;20137;-79
2023/01/07 09:04:39;;;;;;;7.77;6.80;;;10.10;99.90;;;;;;4979569;28;20050;-78
2023/01/07 09:07:05;;;;;;;8.27;6.45;;;10.10;99.90;;;;;;4981703;28;20131;-79
2023/01/07 09:09:31;;;;;;;7.55;6.78;;;10.00;99.90;;;;;;4970211;28;20042;-80
2023/01/07 09:11:57;;;;;;;8.70;6.82;;;10.00;99.90;;;;;;4967595;28;20115;-79
2023/01/07 09:14:23;;;;;;;8.15;6.45;;;10.00;99.90;;;;;;4968705;28;20058;-79
2023/01/07 09:16:48;;;;;;;7.65;6.30;;;9.90;99.90;;;;;;4967347;28;20524;-79
2023/01/07 09:19:14;;;;;;;8.63;6.43;;;10.00;99.90;;;;;;4969133;28;20408;-79
2023/01/07 09:21:40;;;;;;;6.78;5.93;;;9.90;99.90;;;;;;4983539;28;20465;-79
2023/01/07 09:24:06;;;;;;;8.02;6.03;;;10.00;99.90;;;;;;4969476;28;20042;-79
2023/01/07 09:26:32;;;;;;;8.55;6.10;;;10.00;99.90;;;;;;4970703;28;20050;-79
2023/01/07 09:28:57;;;;;;;9.23;6.63;;;9.90;99.90;;;;;;4986727;28;20105;-79
2023/01/07 09:31:23;;;;;;;8.10;6.00;;;10.00;99.90;;;;;;4954197;28;20717;-79
2023/01/07 09:33:49;;;;;;;8.18;6.28;;;9.90;99.90;;;;;;4962886;28;20042;-71
2023/01/07 09:36:15;;;;;;;6.55;5.57;;;9.90;99.90;;;;;;4962005;28;20263;-72
2023/01/07 09:38:41;;;;;;;9.48;6.00;;;9.90;99.90;;;;;;4967583;28;20043;-71
2023/01/07 09:41:24;;;;;;;8.32;6.28;;;10.00;99.90;;;;;;4966844;28;20144;-72
2023/01/07 09:43:55;;;;;;;7.38;6.35;;;9.90;99.90;;;;;;4966782;28;20583;-72
2023/01/07 09:46:22;;;;;;;7.32;5.80;;;9.90;99.90;;;;;;4981471;28;20058;-72
2023/01/07 09:48:56;;;;;;;7.45;5.50;;;9.90;99.90;;;;;;4982466;28;20129;-72
2023/01/07 09:51:33;;;;;;;7.55;6.18;;;9.90;99.90;;;;;;4997117;28;20057;-71
2023/01/07 09:54:02;;;;;;;7.45;5.78;;;9.90;99.90;;;;;;4981575;28;20155;-72
2023/01/07 09:56:37;;;;;;;9.30;6.05;;;9.90;99.90;;;;;;4965150;28;20080;-72
2023/01/07 09:59:04;;;;;;;7.20;5.47;;;10.00;99.90;;;;;;4982016;28;20400;-79
2023/01/07 10:01:41;;;;;;;7.80;5.50;;;10.00;99.90;;;;;;4965704;28;20046;-79
2023/01/07 10:04:44;;;;;;;6.43;5.43;;;10.10;99.90;;;;;;4979396;28;20153;-79
2023/01/07 10:07:16;;;;;;;6.82;5.50;;;10.10;99.90;;;;;;4965296;28;20054;-80
2023/01/07 10:09:53;;;;;;;6.15;5.25;;;10.10;99.90;;;;;;4969523;28;20042;-79
2023/01/07 10:12:36;;;;;;;7.22;4.97;;;10.10;99.90;;;;;;4982797;28;20054;-79
2023/01/07 10:15:24;;;;;;;5.97;4.50;;;10.20;99.90;;;;;;4969183;28;20072;-79
2023/01/07 10:17:56;;;;;;;7.20;4.97;;;10.20;99.90;;;;;;4968222;28;20042;-79
2023/01/07 10:20:41;;;;;;;5.45;4.25;;;10.30;99.90;;;;;;4968595;28;20057;-80
2023/01/07 10:23:20;;;;;;;5.45;4.28;;;10.30;99.90;;;;;;4979089;28;20070;-79
2023/01/07 10:25:49;;;;;;;7.03;4.15;;;10.30;99.90;;;;;;4970047;28;20049;-79
2023/01/07 10:28:47;;;;;;;7.80;4.07;;;10.30;99.90;;;;;;4983177;28;20042;-80
2023/01/07 10:31:22;;;;;;;6.25;4.32;;;10.40;99.90;;;;;;4982754;28;20093;-80
2023/01/07 10:33:49;;;;;;;6.38;3.95;;;10.40;99.90;;;;;;4984063;28;20052;-80
2023/01/07 10:36:55;;;;;;;6.38;4.32;;;10.40;99.90;;;;;;4981623;28;20051;-80
2023/01/07 10:39:42;;;;;;;5.53;3.60;;;10.50;99.90;;;;;;4932205;28;20089;-79
2023/01/07 10:42:18;;;;;;;5.22;3.63;;;10.50;99.90;;;;;;4964657;28;20086;-78
2023/01/07 10:44:55;;;;;;;6.78;3.58;;;10.50;99.90;;;;;;4982811;28;20133;-79
2023/01/07 10:47:30;;;;;;;4.60;3.38;;;10.50;99.90;;;;;;4965099;28;20034;-80
2023/01/07 10:50:17;;;;;;;4.70;2.90;;;10.60;99.90;;;;;;4964951;28;20046;-79
2023/01/07 10:53:12;;;;;;;4.47;3.20;;;10.60;99.90;;;;;;4965303;28;20118;-79
2023/01/07 10:55:50;;;;;;;3.60;2.80;;;10.60;99.90;;;;;;4966456;28;20062;-79
2023/01/07 10:58:17;;;;;;;4.80;3.10;;;10.70;99.90;;;;;;4967595;28;20046;-81
2023/01/07 11:00:46;;;;;;;4.93;2.95;;;10.60;99.90;;;;;;4984619;28;20045;-79
2023/01/07 11:03:32;;;;;;;3.87;2.87;;;10.70;99.90;;;;;;4983673;28;20043;-80
2023/01/07 11:06:04;;;;;;;5.43;2.78;;;10.80;99.90;;;;;;4971819;28;20037;-80
2023/01/07 11:08:41;;;;;;;5.25;2.83;;;10.80;99.90;;;;;;4973022;28;20084;-79
2023/01/07 11:11:16;;;;;;;4.28;2.90;;;10.80;99.90;;;;;;4970457;28;20049;-79
2023/01/07 11:14:00;;;;;;;5.32;2.90;;;10.80;99.90;;;;;;4987919;28;20045;-79
2023/01/07 11:16:30;;;;;;;4.10;2.97;;;10.80;99.90;;;;;;4973499;28;20037;-79
2023/01/07 11:18:59;;;;;;;;;;;10.80;99.90;;;;;;4989807;28;20048;-79
2023/01/07 11:21:35;;;;;;;3.50;2.75;;;10.80;99.90;;;;;;4969228;28;20411;-80
2023/01/07 11:24:01;;;;;;;4.22;2.97;;;10.80;99.90;;;;;;4986483;28;20050;-79
2023/01/07 11:26:31;;;;;;;4.80;2.88;;;10.80;99.90;;;;;;4975920;28;20535;-79
2023/01/07 11:29:15;;;;;;;3.83;2.67;;;10.90;99.90;;;;;;4966021;28;20038;-79
2023/01/07 11:31:50;;;;;;;4.47;2.80;;;10.90;99.90;;;;;;4967783;28;20107;-79
2023/01/07 11:34:36;;;;;;;4.47;2.40;;;10.90;99.90;;;;;;4968660;28;20523;-80
2023/01/07 11:37:03;;;;;;;3.47;2.47;;;10.90;99.90;;;;;;4985961;28;20042;-80
2023/01/07 11:39:32;;;;;;;5.13;2.53;;;10.90;99.90;;;;;;4985676;28;20408;-80
2023/01/07 11:45:19;;;;;;;3.58;2.25;;;10.90;99.90;;;;;;4984900;28;20191;-80
2023/01/07 11:48:09;;;;;;;3.67;2.22;;;10.90;99.90;;;;;;4985187;28;20511;-80
2023/01/07 11:50:40;;;;;;;5.28;2.17;;;10.90;99.90;;;;;;4976016;28;20539;-80
2023/01/07 11:53:15;;;;;;;3.83;2.50;;;10.90;99.90;;;;;;4984703;28;20380;-78
2023/01/07 11:55:57;;;;;;;3.53;2.20;;;11.00;99.90;;;;;;4984820;28;20050;-80
2023/01/07 11:58:26;;;;;;;3.72;2.65;;;11.00;99.90;;;;;;4966926;28;20049;-80
2023/01/07 12:01:03;;;;;;;3.20;2.40;;;11.00;99.90;;;;;;4971763;28;20089;-80
2023/01/07 12:03:30;;;;;;;3.47;2.58;;;11.00;99.90;;;;;;4985882;28;20077;-79
2023/01/07 12:05:59;;;;;;;2.90;1.95;;;11.00;99.90;;;;;;4984980;28;20077;-72
2023/01/07 12:08:26;;;;;;;3.50;2.47;;;11.00;99.90;;;;;;4986441;28;20041;-72
2023/01/07 12:11:06;;;;;;;7.13;2.42;;;11.00;99.90;;;;;;4954854;28;20420;-72
2023/01/07 12:13:33;;;;;;;4.10;2.65;;;11.00;99.90;;;;;;4988077;28;20116;-72
2023/01/07 12:16:07;;;;;;;3.78;2.10;;;11.10;99.90;;;;;;4961241;28;20092;-72
2023/01/07 12:18:42;;;;;;;3.35;2.03;;;11.00;99.90;;;;;;4968025;28;20046;-81
2023/01/07 12:21:24;;;;;;;5.22;2.05;;;11.00;99.90;;;;;;4968223;28;20054;-80
2023/01/07 12:24:11;;;;;;;2.95;1.80;;;11.00;99.90;;;;;;4962953;28;20053;-80
2023/01/07 12:26:48;;;;;;;3.25;2.22;;;11.10;99.90;;;;;;4986070;28;20225;-80
2023/01/07 12:29:21;;;;;;;2.75;1.95;;;11.10;99.90;;;;;;4985293;28;20586;-79
2023/01/07 12:32:12;;;;;;;3.47;1.88;;;11.00;99.90;;;;;;4969006;28;20147;-80
2023/01/07 12:35:12;;;;;;;4.22;1.75;;;11.10;99.90;;;;;;4986619;28;20527;-79
2023/01/07 12:37:58;;;;;;;2.50;2.05;;;11.10;99.90;;;;;;4969816;28;20046;-80
2023/01/07 12:40:36;;;;;;;2.90;1.80;;;11.10;99.90;;;;;;4971130;28;20050;-81
2023/01/07 12:43:26;;;;;;;4.20;2.20;;;11.10;99.90;;;;;;4988679;28;20045;-81
2023/01/07 12:46:02;;;;;;;3.13;1.98;;;11.10;99.90;;;;;;4972622;28;20536;-80
2023/01/07 12:48:42;;;;;;;3.25;1.75;;;11.20;99.90;;;;;;4988669;28;20044;-80
2023/01/07 12:51:30;;;;;;;2.70;1.65;;;11.10;99.90;;;;;;4986798;28;20500;-81
2023/01/07 12:54:04;;;;;;;3.90;2.17;;;11.10;99.90;;;;;;4987172;28;20512;-80
2023/01/07 12:56:36;;;;;;;2.83;2.00;;;11.20;99.90;;;;;;4969144;28;20352;-80
2023/01/07 12:59:13;;;;;;;2.88;1.75;;;11.10;99.90;;;;;;4987538;28;20046;-80
2023/01/07 13:01:44;;;;;;;2.53;1.90;;;11.10;99.90;;;;;;4986369;28;20531;-80